createdAt,value
2019-06-20T00:00:24.084Z,1006.09
2019-06-20T00:01:23.883Z,1006.08
2019-06-20T00:02:23.855Z,1006.12
2019-06-20T00:03:24.728Z,1006.10
2019-06-20T00:04:23.667Z,1006.12
2019-06-20T00:05:23.579Z,1006.12
2019-06-20T00:06:23.579Z,1006.13
2019-06-20T00:07:23.401Z,1006.13
2019-06-20T00:08:23.387Z,1006.11
2019-06-20T00:09:23.240Z,1006.06
2019-06-20T00:10:23.225Z,1006.08
2019-06-20T00:11:23.081Z,1006.08
2019-06-20T00:12:23.111Z,1006.13
2019-06-20T00:13:22.920Z,1006.12
2019-06-20T00:14:22.914Z,1006.16
2019-06-20T00:15:22.859Z,1006.18
2019-06-20T00:16:22.726Z,1006.15
2019-06-20T00:17:22.596Z,1006.17
2019-06-20T00:18:22.531Z,1006.15
2019-06-20T00:19:22.439Z,1006.17
2019-06-20T00:20:23.394Z,1006.14
2019-06-20T00:21:22.274Z,1006.21
2019-06-20T00:22:23.276Z,1006.19
2019-06-20T00:23:22.125Z,1006.17
2019-06-20T00:24:22.034Z,1006.22
2019-06-20T00:25:22.006Z,1006.16
2019-06-20T00:26:21.878Z,1006.17
2019-06-20T00:27:21.794Z,1006.18
2019-06-20T00:28:21.785Z,1006.15
2019-06-20T00:29:21.634Z,1006.19
2019-06-20T00:30:21.622Z,1006.21
2019-06-20T00:31:21.471Z,1006.18
2019-06-20T00:32:21.388Z,1006.19
2019-06-20T00:33:21.407Z,1006.20
2019-06-20T00:34:21.228Z,1006.22
2019-06-20T00:35:21.163Z,1006.21
2019-06-20T00:36:21.117Z,1006.28
2019-06-20T00:37:20.990Z,1006.32
2019-06-20T00:38:20.909Z,1006.29
2019-06-20T00:39:21.860Z,1006.31
2019-06-20T00:40:20.762Z,1006.34
2019-06-20T00:41:20.746Z,1006.33
2019-06-20T00:42:20.588Z,1006.33
2019-06-20T00:43:20.509Z,1006.31
2019-06-20T00:44:27.320Z,1006.36
2019-06-20T00:45:20.360Z,1006.37
2019-06-20T00:46:20.268Z,1006.36
2019-06-20T00:47:20.271Z,1006.36
2019-06-20T00:48:20.112Z,1006.37
2019-06-20T00:49:20.030Z,1006.42
2019-06-20T00:50:22.076Z,1006.39
2019-06-20T00:51:19.865Z,1006.42
2019-06-20T00:52:19.789Z,1006.43
2019-06-20T00:53:19.708Z,1006.43
2019-06-20T00:54:19.720Z,1006.40
2019-06-20T00:55:19.557Z,1006.46
2019-06-20T00:56:19.464Z,1006.42
2019-06-20T00:57:19.432Z,1006.45
2019-06-20T00:58:19.300Z,1006.48
2019-06-20T00:59:19.224Z,1006.48
2019-06-20T01:00:19.173Z,1006.51
2019-06-20T01:01:19.058Z,1006.52
2019-06-20T01:02:18.980Z,1006.54
2019-06-20T01:03:25.817Z,1006.58
2019-06-20T01:04:18.819Z,1006.60
2019-06-20T01:05:18.801Z,1006.62
2019-06-20T01:06:18.659Z,1006.60
2019-06-20T01:07:18.683Z,1006.59
2019-06-20T01:08:18.529Z,1006.66
2019-06-20T01:09:20.430Z,1006.61
2019-06-20T01:10:18.391Z,1006.64
2019-06-20T01:11:18.303Z,1006.69
2019-06-20T01:12:18.182Z,1006.70
2019-06-20T01:13:32.489Z,1006.73
2019-06-20T01:14:18.018Z,1006.65
2019-06-20T01:15:21.328Z,1006.65
2019-06-20T01:16:17.854Z,1006.65
2019-06-20T01:17:17.826Z,1006.60
2019-06-20T01:18:17.705Z,1006.59
2019-06-20T01:19:17.616Z,1006.57
2019-06-20T01:20:17.779Z,1006.56
2019-06-20T01:21:17.452Z,1006.57
2019-06-20T01:22:17.377Z,1006.59
2019-06-20T01:23:17.353Z,1006.61
2019-06-20T01:24:17.228Z,1006.62
2019-06-20T01:25:17.133Z,1006.64
2019-06-20T01:26:17.099Z,1006.67
2019-06-20T01:27:16.975Z,1006.66
2019-06-20T01:28:16.895Z,1006.71
2019-06-20T01:29:16.884Z,1006.75
2019-06-20T01:30:16.736Z,1006.79
2019-06-20T01:31:16.723Z,1006.76
2019-06-20T01:32:16.578Z,1006.78
2019-06-20T01:33:16.600Z,1006.76
2019-06-20T01:34:16.407Z,1006.77
2019-06-20T01:35:16.336Z,1006.79
2019-06-20T01:36:16.351Z,1006.76
2019-06-20T01:37:16.172Z,1006.74
2019-06-20T01:38:16.093Z,1006.80
2019-06-20T01:39:16.026Z,1006.75
2019-06-20T01:40:15.924Z,1006.75
2019-06-20T01:41:15.877Z,1006.77
2019-06-20T01:42:15.765Z,1006.79
2019-06-20T01:43:15.752Z,1006.78
2019-06-20T01:44:15.605Z,1006.79
2019-06-20T01:45:15.528Z,1006.80
2019-06-20T01:46:15.500Z,1006.86
2019-06-20T01:47:15.365Z,1006.85
2019-06-20T01:48:15.286Z,1006.90
2019-06-20T01:49:15.283Z,1006.86
2019-06-20T01:50:15.134Z,1006.88
2019-06-20T01:51:15.127Z,1006.90
2019-06-20T01:52:14.965Z,1006.90
2019-06-20T01:53:15.925Z,1006.93
2019-06-20T01:54:14.799Z,1006.94
2019-06-20T01:55:14.720Z,1006.98
2019-06-20T01:56:14.749Z,1006.99
2019-06-20T01:57:14.560Z,1007.06
2019-06-20T01:58:14.480Z,1007.01
2019-06-20T01:59:14.443Z,1007.08
2019-06-20T02:00:14.325Z,1007.06
2019-06-20T02:01:15.294Z,1007.06
2019-06-20T02:02:14.161Z,1007.09
2019-06-20T02:03:14.434Z,1007.08
2019-06-20T02:04:13.996Z,1007.05
2019-06-20T02:05:20.827Z,1007.07
2019-06-20T02:06:13.854Z,1007.10
2019-06-20T02:07:13.874Z,1007.11
2019-06-20T02:08:13.681Z,1007.05
2019-06-20T02:09:13.690Z,1007.08
2019-06-20T02:10:13.519Z,1007.11
2019-06-20T02:11:13.523Z,1007.12
2019-06-20T02:12:13.363Z,1007.12
2019-06-20T02:13:14.337Z,1007.11
2019-06-20T02:14:13.195Z,1007.10
2019-06-20T02:15:13.113Z,1007.13
2019-06-20T02:16:13.152Z,1007.10
2019-06-20T02:17:12.953Z,1007.13
2019-06-20T02:18:12.874Z,1007.15
2019-06-20T02:19:12.831Z,1007.15
2019-06-20T02:20:12.727Z,1007.17
2019-06-20T02:21:12.642Z,1007.17
2019-06-20T02:22:12.562Z,1007.18
2019-06-20T02:23:12.472Z,1007.19
2019-06-20T02:24:12.434Z,1007.16
2019-06-20T02:25:12.363Z,1007.19
2019-06-20T02:26:12.400Z,1007.18
2019-06-20T02:27:12.170Z,1007.19
2019-06-20T02:28:12.070Z,1007.17
2019-06-20T02:29:11.988Z,1007.18
2019-06-20T02:30:11.915Z,1007.17
2019-06-20T02:31:11.921Z,1007.16
2019-06-20T02:32:11.750Z,1007.16
2019-06-20T02:33:11.677Z,1007.17
2019-06-20T02:34:11.585Z,1007.14
2019-06-20T02:35:11.606Z,1007.17
2019-06-20T02:36:11.436Z,1007.19
2019-06-20T02:37:11.346Z,1007.20
2019-06-20T02:38:11.265Z,1007.22
2019-06-20T02:39:11.229Z,1007.24
2019-06-20T02:40:11.113Z,1007.23
2019-06-20T02:41:11.070Z,1007.24
2019-06-20T02:42:10.948Z,1007.25
2019-06-20T02:43:10.947Z,1007.26
2019-06-20T02:44:28.433Z,1007.27
2019-06-20T02:45:10.754Z,1007.30
2019-06-20T02:46:10.635Z,1007.31
2019-06-20T02:47:10.566Z,1007.35
2019-06-20T02:48:10.470Z,1007.28
2019-06-20T02:49:11.398Z,1007.31
2019-06-20T02:50:10.305Z,1007.30
2019-06-20T02:51:10.322Z,1007.30
2019-06-20T02:52:10.142Z,1007.31
2019-06-20T02:53:10.097Z,1007.29
2019-06-20T02:54:09.992Z,1007.30
2019-06-20T02:55:09.906Z,1007.32
2019-06-20T02:56:09.972Z,1007.35
2019-06-20T02:57:09.740Z,1007.35
2019-06-20T02:58:09.673Z,1007.34
2019-06-20T02:59:09.625Z,1007.35
2019-06-20T03:00:09.503Z,1007.35
2019-06-20T03:01:09.436Z,1007.31
2019-06-20T03:02:09.448Z,1007.37
2019-06-20T03:03:09.266Z,1007.36
2019-06-20T03:04:09.186Z,1007.33
2019-06-20T03:05:09.153Z,1007.32
2019-06-20T03:06:09.037Z,1007.34
2019-06-20T03:07:09.000Z,1007.35
2019-06-20T03:08:08.858Z,1007.36
2019-06-20T03:09:08.874Z,1007.34
2019-06-20T03:10:08.699Z,1007.37
2019-06-20T03:11:08.616Z,1007.36
2019-06-20T03:12:08.619Z,1007.36
2019-06-20T03:13:09.501Z,1007.38
2019-06-20T03:14:08.382Z,1007.41
2019-06-20T03:15:08.405Z,1007.35
2019-06-20T03:16:08.221Z,1007.39
2019-06-20T03:17:08.158Z,1007.38
2019-06-20T03:18:08.064Z,1007.36
2019-06-20T03:19:07.978Z,1007.39
2019-06-20T03:20:07.891Z,1007.39
2019-06-20T03:21:07.834Z,1007.38
2019-06-20T03:22:07.748Z,1007.37
2019-06-20T03:23:07.663Z,1007.39
2019-06-20T03:24:07.752Z,1007.40
2019-06-20T03:25:07.493Z,1007.41
2019-06-20T03:26:07.415Z,1007.42
2019-06-20T03:27:07.390Z,1007.39
2019-06-20T03:28:07.258Z,1007.44
2019-06-20T03:29:07.173Z,1007.42
2019-06-20T03:30:07.180Z,1007.42
2019-06-20T03:31:07.033Z,1007.44
2019-06-20T03:32:06.960Z,1007.43
2019-06-20T03:33:06.890Z,1007.42
2019-06-20T03:34:06.778Z,1007.43
2019-06-20T03:35:06.812Z,1007.40
2019-06-20T03:36:06.733Z,1007.41
2019-06-20T03:37:06.552Z,1007.35
2019-06-20T03:38:06.514Z,1007.38
2019-06-20T03:39:06.387Z,1007.39
2019-06-20T03:40:06.323Z,1007.44
2019-06-20T03:41:06.211Z,1007.47
2019-06-20T03:42:06.178Z,1007.46
2019-06-20T03:43:06.049Z,1007.51
2019-06-20T03:44:07.070Z,1007.47
2019-06-20T03:45:05.887Z,1007.46
2019-06-20T03:46:05.821Z,1007.49
2019-06-20T03:47:05.809Z,1007.47
2019-06-20T03:48:05.653Z,1007.47
2019-06-20T03:49:05.579Z,1007.47
2019-06-20T03:50:06.598Z,1007.49
2019-06-20T03:51:05.417Z,1007.46
2019-06-20T03:52:05.342Z,1007.51
2019-06-20T03:53:05.285Z,1007.53
2019-06-20T03:54:05.168Z,1007.54
2019-06-20T03:55:05.087Z,1007.58
2019-06-20T03:56:05.103Z,1007.58
2019-06-20T03:57:04.941Z,1007.52
2019-06-20T03:58:04.913Z,1007.56
2019-06-20T03:59:04.766Z,1007.57
2019-06-20T04:00:04.720Z,1007.59
2019-06-20T04:01:04.611Z,1007.59
2019-06-20T04:02:04.560Z,1007.59
2019-06-20T04:03:04.446Z,1007.62
2019-06-20T04:04:04.439Z,1007.66
2019-06-20T04:05:04.279Z,1007.65
2019-06-20T04:06:04.264Z,1007.67
2019-06-20T04:07:04.190Z,1007.72
2019-06-20T04:08:04.101Z,1007.71
2019-06-20T04:09:03.966Z,1007.74
2019-06-20T04:10:03.970Z,1007.80
2019-06-20T04:11:03.808Z,1007.80
2019-06-20T04:12:03.812Z,1007.79
2019-06-20T04:13:03.636Z,1007.84
2019-06-20T04:14:03.593Z,1007.83
2019-06-20T04:15:17.904Z,1007.87
2019-06-20T04:16:03.439Z,1007.86
2019-06-20T04:17:03.439Z,1007.85
2019-06-20T04:18:03.256Z,1007.91
2019-06-20T04:19:03.158Z,1007.85
2019-06-20T04:20:03.121Z,1007.86
2019-06-20T04:21:03.005Z,1007.86
2019-06-20T04:22:03.023Z,1007.84
2019-06-20T04:23:02.858Z,1007.85
2019-06-20T04:24:02.772Z,1007.84
2019-06-20T04:25:02.681Z,1007.87
2019-06-20T04:26:02.597Z,1007.88
2019-06-20T04:27:02.592Z,1007.89
2019-06-20T04:28:02.590Z,1007.86
2019-06-20T04:29:02.360Z,1007.88
2019-06-20T04:30:02.368Z,1007.92
2019-06-20T04:31:02.198Z,1007.95
2019-06-20T04:32:02.138Z,1007.94
2019-06-20T04:33:02.050Z,1007.96
2019-06-20T04:34:01.960Z,1007.99
2019-06-20T04:35:01.897Z,1008.05
2019-06-20T04:36:01.795Z,1008.03
2019-06-20T04:37:01.835Z,1008.05
2019-06-20T04:38:01.638Z,1008.09
2019-06-20T04:39:01.718Z,1008.12
2019-06-20T04:40:01.479Z,1008.08
2019-06-20T04:41:01.421Z,1008.10
2019-06-20T04:42:01.329Z,1008.07
2019-06-20T04:43:01.342Z,1008.11
2019-06-20T04:44:01.176Z,1008.13
2019-06-20T04:45:01.184Z,1008.12
2019-06-20T04:46:00.993Z,1008.11
2019-06-20T04:47:00.928Z,1008.14
2019-06-20T04:48:00.836Z,1008.13
2019-06-20T04:49:00.753Z,1008.14
2019-06-20T04:50:00.694Z,1008.12
2019-06-20T04:51:00.670Z,1008.16
2019-06-20T04:52:00.537Z,1008.18
2019-06-20T04:53:00.445Z,1008.20
2019-06-20T04:54:00.389Z,1008.23
2019-06-20T04:55:00.309Z,1008.24
2019-06-20T04:56:00.190Z,1008.25
2019-06-20T04:57:00.231Z,1008.26
2019-06-20T04:58:00.037Z,1008.26
2019-06-20T04:58:59.952Z,1008.25
2019-06-20T04:59:59.915Z,1008.29
2019-06-20T05:00:59.792Z,1008.32
2019-06-20T05:01:59.730Z,1008.34
2019-06-20T05:02:59.730Z,1008.33
2019-06-20T05:03:59.553Z,1008.35
2019-06-20T05:05:01.487Z,1008.31
2019-06-20T05:05:59.398Z,1008.32
2019-06-20T05:06:59.330Z,1008.34
2019-06-20T05:07:59.257Z,1008.36
2019-06-20T05:08:59.155Z,1008.35
2019-06-20T05:09:59.084Z,1008.39
2019-06-20T05:11:05.929Z,1008.36
2019-06-20T05:11:58.936Z,1008.42
2019-06-20T05:12:58.878Z,1008.45
2019-06-20T05:13:58.760Z,1008.52
2019-06-20T05:14:58.690Z,1008.51
2019-06-20T05:15:58.600Z,1008.48
2019-06-20T05:17:07.270Z,1008.51
2019-06-20T05:17:58.571Z,1008.51
2019-06-20T05:18:58.362Z,1008.51
2019-06-20T05:19:58.420Z,1008.50
2019-06-20T05:20:58.200Z,1008.54
2019-06-20T05:21:58.190Z,1008.55
2019-06-20T05:22:58.052Z,1008.62
2019-06-20T05:23:57.998Z,1008.61
2019-06-20T05:24:57.874Z,1008.64
2019-06-20T05:25:58.009Z,1008.60
2019-06-20T05:26:57.714Z,1008.57
2019-06-20T05:27:58.055Z,1008.56
2019-06-20T05:28:57.552Z,1008.55
2019-06-20T05:29:57.642Z,1008.50
2019-06-20T05:30:57.392Z,1008.50
2019-06-20T05:31:57.327Z,1008.48
2019-06-20T05:32:57.266Z,1008.50
2019-06-20T05:33:57.158Z,1008.51
2019-06-20T05:34:57.076Z,1008.54
2019-06-20T05:35:57.054Z,1008.56
2019-06-20T05:36:56.933Z,1008.57
2019-06-20T05:37:56.867Z,1008.61
2019-06-20T05:38:56.868Z,1008.56
2019-06-20T05:39:56.756Z,1008.63
2019-06-20T05:40:56.605Z,1008.57
2019-06-20T05:41:56.683Z,1008.60
2019-06-20T05:42:56.521Z,1008.61
2019-06-20T05:43:56.357Z,1008.66
2019-06-20T05:44:56.280Z,1008.65
2019-06-20T05:46:09.001Z,1008.69
2019-06-20T05:47:11.445Z,1008.71
2019-06-20T05:47:56.038Z,1008.67
2019-06-20T05:48:55.977Z,1008.65
2019-06-20T05:49:55.924Z,1008.68
2019-06-20T05:50:55.803Z,1008.71
2019-06-20T05:51:55.930Z,1008.68
2019-06-20T05:52:55.646Z,1008.70
2019-06-20T05:53:55.767Z,1008.70
2019-06-20T05:54:55.483Z,1008.67
2019-06-20T05:55:55.564Z,1008.71
2019-06-20T05:56:55.337Z,1008.68
2019-06-20T05:57:55.248Z,1008.70
2019-06-20T05:58:55.396Z,1008.70
2019-06-20T05:59:55.081Z,1008.71
2019-06-20T06:00:55.007Z,1008.73
2019-06-20T06:01:56.408Z,1008.77
2019-06-20T06:02:54.854Z,1008.72
2019-06-20T06:03:54.811Z,1008.76
2019-06-20T06:04:54.685Z,1008.79
2019-06-20T06:05:54.794Z,1008.80
2019-06-20T06:06:54.529Z,1008.76
2019-06-20T06:07:54.452Z,1008.75
2019-06-20T06:08:54.436Z,1008.78
2019-06-20T06:09:54.294Z,1008.77
2019-06-20T06:10:54.219Z,1008.77
2019-06-20T06:11:54.226Z,1008.78
2019-06-20T06:12:54.053Z,1008.76
2019-06-20T06:14:01.144Z,1008.73
2019-06-20T06:14:54.037Z,1008.77
2019-06-20T06:15:53.810Z,1008.79
2019-06-20T06:16:53.847Z,1008.79
2019-06-20T06:17:53.651Z,1008.88
2019-06-20T06:18:53.651Z,1008.87
2019-06-20T06:19:53.506Z,1008.87
2019-06-20T06:20:53.465Z,1008.88
2019-06-20T06:21:53.338Z,1008.88
2019-06-20T06:22:53.580Z,1008.88
2019-06-20T06:23:53.276Z,1008.87
2019-06-20T06:24:53.123Z,1008.95
2019-06-20T06:25:53.015Z,1009.07
2019-06-20T06:26:53.091Z,1009.13
2019-06-20T06:28:00.954Z,1009.10
2019-06-20T06:28:52.900Z,1009.09
2019-06-20T06:29:52.725Z,1009.06
2019-06-20T06:30:52.705Z,1009.05
2019-06-20T06:31:52.557Z,1009.03
2019-06-20T06:32:52.518Z,1009.01
2019-06-20T06:33:52.382Z,1009.09
2019-06-20T06:34:52.362Z,1009.05
2019-06-20T06:35:52.223Z,1009.03
2019-06-20T06:36:52.373Z,1008.99
2019-06-20T06:37:52.065Z,1009.06
2019-06-20T06:38:52.061Z,1009.12
2019-06-20T06:39:51.980Z,1009.08
2019-06-20T06:40:51.831Z,1009.06
2019-06-20T06:41:51.751Z,1009.08
2019-06-20T06:42:51.761Z,1009.08
2019-06-20T06:43:51.585Z,1009.01
2019-06-20T06:44:51.529Z,1009.12
2019-06-20T06:45:51.580Z,1009.15
2019-06-20T06:46:54.372Z,1009.11
2019-06-20T06:47:51.270Z,1009.06
2019-06-20T06:48:51.392Z,1009.11
2019-06-20T06:49:51.141Z,1009.07
2019-06-20T06:50:51.037Z,1009.08
2019-06-20T06:51:51.000Z,1009.11
2019-06-20T06:52:50.887Z,1009.20
2019-06-20T06:53:50.807Z,1009.33
2019-06-20T06:54:50.819Z,1009.26
2019-06-20T06:55:50.658Z,1009.22
2019-06-20T06:56:50.625Z,1009.24
2019-06-20T06:57:50.478Z,1009.28
2019-06-20T06:58:50.402Z,1009.54
2019-06-20T06:59:50.319Z,1009.47
2019-06-20T07:00:50.363Z,1009.42
2019-06-20T07:01:50.162Z,1009.26
2019-06-20T07:02:50.086Z,1009.24
2019-06-20T07:03:50.021Z,1009.56
2019-06-20T07:04:50.974Z,1009.55
2019-06-20T07:05:49.871Z,1009.56
2019-06-20T07:06:49.891Z,1009.42
2019-06-20T07:07:49.693Z,1009.73
2019-06-20T07:08:49.617Z,1009.78
2019-06-20T07:09:49.582Z,1010.04
2019-06-20T07:10:49.463Z,1009.72
2019-06-20T07:11:49.382Z,1009.65
2019-06-20T07:12:49.404Z,1009.69
2019-06-20T07:13:49.222Z,1009.80
2019-06-20T07:14:49.138Z,1009.81
2019-06-20T07:15:49.145Z,1009.77
2019-06-20T07:16:59.679Z,1009.73
2019-06-20T07:17:48.909Z,1009.68
2019-06-20T07:18:48.833Z,1009.66
2019-06-20T07:19:48.779Z,1009.66
2019-06-20T07:20:48.685Z,1009.57
2019-06-20T07:21:48.956Z,1009.57
2019-06-20T07:22:48.522Z,1009.80
2019-06-20T07:23:48.440Z,1009.63
2019-06-20T07:24:48.365Z,1009.59
2019-06-20T07:25:48.293Z,1009.56
2019-06-20T07:26:48.208Z,1009.63
2019-06-20T07:27:48.134Z,1009.60
2019-06-20T07:28:51.415Z,1009.65
2019-06-20T07:29:47.980Z,1009.52
2019-06-20T07:30:48.024Z,1009.47
2019-06-20T07:31:47.855Z,1009.50
2019-06-20T07:32:47.751Z,1009.54
2019-06-20T07:33:47.697Z,1009.57
2019-06-20T07:34:47.601Z,1009.64
2019-06-20T07:35:47.641Z,1009.87
2019-06-20T07:36:47.463Z,1009.97
2019-06-20T07:37:53.977Z,1010.08
2019-06-20T07:38:47.289Z,1009.95
2019-06-20T07:39:47.265Z,1009.88
2019-06-20T07:40:47.149Z,1010.20
2019-06-20T07:41:47.069Z,1009.77
2019-06-20T07:42:46.986Z,1009.96
2019-06-20T07:43:46.918Z,1009.88
2019-06-20T07:44:46.841Z,1009.85
2019-06-20T07:46:01.503Z,1009.90
2019-06-20T07:46:46.689Z,1009.98
2019-06-20T07:47:46.618Z,1009.98
2019-06-20T07:48:46.537Z,1010.01
2019-06-20T07:49:46.479Z,1009.96
2019-06-20T07:50:46.406Z,1010.25
2019-06-20T07:51:46.329Z,1010.12
2019-06-20T07:53:00.810Z,1010.16
2019-06-20T07:53:46.176Z,1010.05
2019-06-20T07:54:46.093Z,1010.04
2019-06-20T07:55:46.045Z,1010.11
2019-06-20T07:56:45.950Z,1010.24
2019-06-20T07:57:45.875Z,1010.25
2019-06-20T07:58:45.800Z,1010.31
2019-06-20T07:59:45.728Z,1010.17
2019-06-20T08:00:45.667Z,1010.05
2019-06-20T08:01:45.582Z,1010.26
2019-06-20T08:02:45.499Z,1010.30
2019-06-20T08:03:45.438Z,1010.17
2019-06-20T08:04:45.361Z,1010.13
2019-06-20T08:05:45.301Z,1009.92
2019-06-20T08:06:45.303Z,1009.90
2019-06-20T08:07:45.146Z,1010.00
2019-06-20T08:08:45.061Z,1010.01
2019-06-20T08:09:45.588Z,1009.96
2019-06-20T08:10:44.992Z,1010.01
2019-06-20T08:11:44.837Z,1010.10
2019-06-20T08:12:44.775Z,1010.24
2019-06-20T08:13:44.695Z,1010.25
2019-06-20T08:14:44.701Z,1009.77
2019-06-20T08:15:44.561Z,1009.62
2019-06-20T08:16:44.603Z,1009.54
2019-06-20T08:17:44.528Z,1010.02
2019-06-20T08:18:44.335Z,1009.91
2019-06-20T08:19:44.425Z,1009.62
2019-06-20T08:20:44.219Z,1009.65
2019-06-20T08:21:44.289Z,1009.71
2019-06-20T08:22:44.237Z,1009.78
2019-06-20T08:23:43.963Z,1009.98
2019-06-20T08:24:43.898Z,1010.47
2019-06-20T08:25:43.851Z,1010.34
2019-06-20T08:26:43.765Z,1010.34
2019-06-20T08:27:43.667Z,1010.37
2019-06-20T08:28:43.664Z,1010.21
2019-06-20T08:29:43.522Z,1010.18
2019-06-20T08:30:43.455Z,1010.29
2019-06-20T08:31:43.540Z,1010.34
2019-06-20T08:32:43.307Z,1010.32
2019-06-20T08:33:43.228Z,1010.36
2019-06-20T08:34:43.294Z,1010.54
2019-06-20T08:35:43.108Z,1010.22
2019-06-20T08:36:43.134Z,1009.99
2019-06-20T08:37:42.945Z,1009.71
2019-06-20T08:38:42.884Z,1009.69
2019-06-20T08:39:42.812Z,1009.65
2019-06-20T08:40:42.736Z,1009.62
2019-06-20T08:41:42.671Z,1009.67
2019-06-20T08:42:42.591Z,1009.73
2019-06-20T08:43:42.518Z,1009.79
2019-06-20T08:44:42.438Z,1010.19
2019-06-20T08:45:42.372Z,1010.02
2019-06-20T08:46:42.306Z,1010.08
2019-06-20T08:47:42.295Z,1010.11
2019-06-20T08:48:42.152Z,1014.59
2019-06-20T08:49:42.073Z,1012.10
2019-06-20T08:50:42.006Z,1010.14
2019-06-20T08:51:41.959Z,1011.53
2019-06-20T08:52:41.851Z,1011.33
2019-06-20T08:53:41.788Z,1012.03
2019-06-20T08:54:41.711Z,1011.42
2019-06-20T08:55:41.630Z,1010.99
2019-06-20T08:56:41.575Z,1010.82
2019-06-20T08:57:41.499Z,1009.96
2019-06-20T08:58:41.414Z,1009.93
2019-06-20T08:59:41.351Z,1010.01
2019-06-20T09:00:41.279Z,1010.06
2019-06-20T09:01:41.212Z,1010.49
2019-06-20T09:02:41.145Z,1010.56
2019-06-20T09:03:41.152Z,1010.06
2019-06-20T09:04:40.978Z,1010.54
2019-06-20T09:05:40.920Z,1010.67
2019-06-20T09:06:40.851Z,1010.25
2019-06-20T09:07:41.801Z,1010.20
2019-06-20T09:08:40.693Z,1010.12
2019-06-20T09:09:40.634Z,1010.96
2019-06-20T09:10:40.558Z,1010.99
2019-06-20T09:11:40.496Z,1011.14
2019-06-20T09:12:40.419Z,1011.18
2019-06-20T09:13:40.720Z,1011.03
2019-06-20T09:14:41.265Z,1011.14
2019-06-20T09:15:40.194Z,1011.09
2019-06-20T09:16:40.192Z,1011.13
2019-06-20T09:17:40.043Z,1011.39
2019-06-20T09:18:39.983Z,1011.34
2019-06-20T09:19:39.906Z,1011.21
2019-06-20T09:20:39.848Z,1011.33
2019-06-20T09:21:39.800Z,1011.50
2019-06-20T09:22:39.701Z,1011.28
2019-06-20T09:23:39.637Z,1010.92
2019-06-20T09:24:39.567Z,1010.77
2019-06-20T09:25:39.498Z,1010.27
2019-06-20T09:26:39.439Z,1010.14
2019-06-20T09:27:39.545Z,1010.33
2019-06-20T09:28:39.287Z,1010.17
2019-06-20T09:29:42.025Z,1010.25
2019-06-20T09:30:39.362Z,1010.15
2019-06-20T09:31:39.095Z,1010.08
2019-06-20T09:32:39.170Z,1009.89
2019-06-20T09:33:38.953Z,1009.79
2019-06-20T09:34:38.877Z,1009.78
2019-06-20T09:35:38.983Z,1009.78
2019-06-20T09:36:38.748Z,1009.75
2019-06-20T09:37:38.670Z,1009.72
2019-06-20T09:38:38.807Z,1009.78
2019-06-20T09:39:38.519Z,1009.83
2019-06-20T09:40:38.455Z,1009.87
2019-06-20T09:41:38.450Z,1009.88
2019-06-20T09:42:38.308Z,1009.91
2019-06-20T09:43:38.424Z,1009.99
2019-06-20T09:44:38.166Z,1011.48
2019-06-20T09:45:38.100Z,1011.54
2019-06-20T09:46:38.037Z,1011.69
2019-06-20T09:47:38.040Z,1011.99
2019-06-20T09:48:37.882Z,1012.00
2019-06-20T09:49:37.849Z,1011.62
2019-06-20T09:50:37.715Z,1010.44
2019-06-20T09:51:37.729Z,1010.13
2019-06-20T09:52:37.575Z,1010.04
2019-06-20T09:53:37.616Z,1009.99
2019-06-20T09:54:37.433Z,1010.11
2019-06-20T09:55:37.477Z,1010.11
2019-06-20T09:56:37.309Z,1010.16
2019-06-20T09:57:37.284Z,1010.58
2019-06-20T09:58:37.157Z,1012.19
2019-06-20T09:59:37.299Z,1011.87
2019-06-20T10:00:37.010Z,1012.25
2019-06-20T10:01:37.138Z,1012.21
2019-06-20T10:02:36.885Z,1012.04
2019-06-20T10:03:36.921Z,1012.23
2019-06-20T10:04:36.850Z,1012.20
2019-06-20T10:05:36.724Z,1012.46
2019-06-20T10:06:36.586Z,1010.27
2019-06-20T10:07:36.536Z,1011.17
2019-06-20T10:08:36.432Z,1012.26
2019-06-20T10:09:36.553Z,1012.12
2019-06-20T10:10:36.295Z,1011.80
2019-06-20T10:11:36.389Z,1010.35
2019-06-20T10:12:36.158Z,1011.74
2019-06-20T10:13:36.161Z,1011.44
2019-06-20T10:14:36.019Z,1011.94
2019-06-20T10:15:35.958Z,1011.89
2019-06-20T10:16:45.264Z,1011.88
2019-06-20T10:17:35.810Z,1011.87
2019-06-20T10:18:35.747Z,1011.76
2019-06-20T10:19:35.794Z,1011.45
2019-06-20T10:20:38.668Z,1011.51
2019-06-20T10:21:35.634Z,1011.47
2019-06-20T10:22:35.476Z,1011.32
2019-06-20T10:23:35.613Z,1010.94
2019-06-20T10:24:35.351Z,1010.68
2019-06-20T10:25:35.290Z,1010.89
2019-06-20T10:26:37.757Z,1010.90
2019-06-20T10:27:35.151Z,1010.66
2019-06-20T10:28:35.066Z,1010.58
2019-06-20T10:29:35.045Z,1010.51
2019-06-20T10:30:34.939Z,1010.31
2019-06-20T10:31:34.871Z,1010.33
2019-06-20T10:32:34.889Z,1010.32
2019-06-20T10:33:34.741Z,1010.35
2019-06-20T10:34:34.868Z,1010.39
2019-06-20T10:35:34.611Z,1010.37
2019-06-20T10:36:34.539Z,1010.38
2019-06-20T10:37:34.510Z,1010.43
2019-06-20T10:38:34.416Z,1010.43
2019-06-20T10:39:34.422Z,1010.54
2019-06-20T10:40:34.501Z,1010.59
2019-06-20T10:41:34.218Z,1010.44
2019-06-20T10:42:34.340Z,1010.47
2019-06-20T10:43:34.102Z,1010.47
2019-06-20T10:44:34.117Z,1010.34
2019-06-20T10:45:33.965Z,1010.52
2019-06-20T10:46:33.909Z,1010.56
2019-06-20T10:47:36.193Z,1010.42
2019-06-20T10:48:33.827Z,1010.31
2019-06-20T10:49:33.713Z,1010.33
2019-06-20T10:50:33.703Z,1010.52
2019-06-20T10:51:33.590Z,1010.53
2019-06-20T10:52:33.536Z,1010.49
2019-06-20T10:53:40.074Z,1010.10
2019-06-20T10:54:33.395Z,1010.45
2019-06-20T10:55:33.328Z,1010.53
2019-06-20T10:56:33.335Z,1010.17
2019-06-20T10:57:33.235Z,1010.27
2019-06-20T10:58:33.141Z,1010.78
2019-06-20T10:59:33.163Z,1010.80
2019-06-20T11:00:33.011Z,1010.45
2019-06-20T11:01:32.946Z,1010.41
2019-06-20T11:02:33.005Z,1010.39
2019-06-20T11:03:32.817Z,1010.35
2019-06-20T11:04:32.760Z,1010.60
2019-06-20T11:05:32.790Z,1010.48
2019-06-20T11:06:32.617Z,1010.40
2019-06-20T11:07:32.625Z,1010.46
2019-06-20T11:08:32.484Z,1010.35
2019-06-20T11:09:34.450Z,1010.30
2019-06-20T11:10:32.354Z,1010.39
2019-06-20T11:11:32.282Z,1010.36
2019-06-20T11:12:42.798Z,1010.33
2019-06-20T11:13:32.146Z,1010.29
2019-06-20T11:14:32.082Z,1010.17
2019-06-20T11:15:34.122Z,1010.09
2019-06-20T11:16:31.960Z,1010.02
2019-06-20T11:17:31.880Z,1009.95
2019-06-20T11:18:31.848Z,1009.99
2019-06-20T11:19:31.731Z,1010.01
2019-06-20T11:20:31.661Z,1009.94
2019-06-20T11:21:31.664Z,1009.93
2019-06-20T11:22:31.538Z,1010.02
2019-06-20T11:23:31.450Z,1010.06
2019-06-20T11:24:31.477Z,1010.06
2019-06-20T11:25:31.312Z,1010.12
2019-06-20T11:26:31.241Z,1010.14
2019-06-20T11:27:31.251Z,1010.14
2019-06-20T11:28:31.092Z,1010.13
2019-06-20T11:29:31.020Z,1010.14
2019-06-20T11:30:47.564Z,1010.14
2019-06-20T11:31:30.870Z,1010.04
2019-06-20T11:32:30.810Z,1009.95
2019-06-20T11:33:30.824Z,1009.88
2019-06-20T11:34:30.658Z,1009.85
2019-06-20T11:35:30.580Z,1009.82
2019-06-20T11:36:30.552Z,1009.80
2019-06-20T11:37:30.446Z,1009.79
2019-06-20T11:38:30.363Z,1009.80
2019-06-20T11:39:30.355Z,1009.79
2019-06-20T11:40:30.214Z,1009.78
2019-06-20T11:41:31.469Z,1009.86
2019-06-20T11:42:30.104Z,1009.91
2019-06-20T11:43:30.036Z,1010.01
2019-06-20T11:44:38.838Z,1010.02
2019-06-20T11:45:29.873Z,1010.15
2019-06-20T11:46:29.770Z,1010.16
2019-06-20T11:47:29.719Z,1010.40
2019-06-20T11:48:29.692Z,1010.52
2019-06-20T11:49:29.544Z,1010.84
2019-06-20T11:50:29.468Z,1010.40
2019-06-20T11:51:29.440Z,1010.26
2019-06-20T11:52:29.347Z,1010.26
2019-06-20T11:53:29.255Z,1010.21
2019-06-20T11:54:29.219Z,1010.33
2019-06-20T11:55:29.108Z,1010.28
2019-06-20T11:56:29.033Z,1010.24
2019-06-20T11:57:28.983Z,1010.25
2019-06-20T11:58:28.890Z,1010.20
2019-06-20T11:59:28.825Z,1010.10
2019-06-20T12:00:28.849Z,1010.00
2019-06-20T12:01:32.983Z,1010.05
2019-06-20T12:02:28.617Z,1010.03
2019-06-20T12:03:28.561Z,1010.03
2019-06-20T12:04:28.458Z,1010.02